Airfield :
LOGIN :

Register | Disclaimer

   EN    FR    IT 

 










Legend :    VFR   Marginal VFR   IFR   Intensive IFR   Very Intensive IFR
Visi :
Ceiling :
>= 8 km
>= 3000ft
5 to 8 km
1000 to 3000 ft
1500m to 5 km
500 to 1000 ft
800 to 1500m
200 to 500 ft
< 800m
< 200 ft
Symbols :   Thunderstorms  Fog  Heavy snow  Heavy precipitations  Wind > 20 kt
SIGMETs :     Misc.  Thunderstorms  Icing  Turbulence  Mountain Waves  Volcanic Ashes







- Airport Elevation : 863 ft
- IATA code : ZAZ


LEZG - Zaragoza Aragon

CURRENT METAR :
  • 252300Z 27015KT CAVOK 06/00 Q1010

EXPIRED METARs :
  • 252230Z 29018KT 9999 FEW040 07/01 Q1010
  • 252200Z 28019KT 9999 FEW040 08/00 Q1010
  • 252130Z 28019KT 9999 FEW040 08/00 Q1010
  • 252100Z 28019KT 9999 FEW040 09/M00 Q1009
  • 252030Z 27018KT 9999 FEW040 09/M01 Q1009

TAF AMD TAF LEZG
Valid from the 25 at 20:00 until the 26 at 18:00 UTC


252005Z 2520/2618 30015KT 9999 FEW040 TX14/2614Z TN01/2606Z
TEMPO 2521/2618 29020G30KT
No reported NOTAMs for that airfield.



MET'MAP, your aeronautical weather chart ! - Copyright ORBIFLY December 2007 - Disclaimer

ORBIFLY MET'MAP TEAM :

Programming & Development : Alexandra Zaïnal
Concept & Development : Baudouin d'Aumeries
Co-Development & Prog : Marc-Olivier Méhu
Technical & hardware support : Manuel Goepfert

Contact : metmap@orbifly.com




SOURCES & CREDITS :

   NOAA